createdAt,value
2019-06-01T00:00:27.757Z,93.95
2019-06-01T00:01:27.768Z,93.54
2019-06-01T00:02:27.739Z,93.04
2019-06-01T00:03:27.725Z,93.04
2019-06-01T00:04:27.737Z,93.24
2019-06-01T00:05:27.702Z,92.94
2019-06-01T00:06:27.699Z,92.94
2019-06-01T00:07:27.681Z,92.74
2019-06-01T00:08:27.670Z,92.63
2019-06-01T00:09:27.687Z,92.83
2019-06-01T00:10:27.658Z,92.74
2019-06-01T00:11:27.634Z,92.83
2019-06-01T00:12:27.640Z,93.14
2019-06-01T00:13:27.626Z,93.34
2019-06-01T00:14:27.625Z,93.38
2019-06-01T00:15:27.593Z,93.04
2019-06-01T00:16:27.579Z,93.24
2019-06-01T00:17:27.564Z,93.18
2019-06-01T00:18:27.566Z,92.88
2019-06-01T00:19:27.577Z,93.49
2019-06-01T00:20:27.545Z,93.59
2019-06-01T00:21:27.522Z,94.09
2019-06-01T00:22:27.516Z,93.89
2019-06-01T00:23:27.506Z,93.49
2019-06-01T00:24:27.520Z,93.49
2019-06-01T00:25:27.482Z,93.49
2019-06-01T00:26:27.476Z,93.89
2019-06-01T00:27:27.458Z,93.99
2019-06-01T00:28:27.448Z,94.09
2019-06-01T00:29:27.465Z,93.89
2019-06-01T00:30:27.692Z,93.34
2019-06-01T00:31:27.417Z,93.18
2019-06-01T00:32:27.426Z,92.88
2019-06-01T00:33:27.403Z,93.38
2019-06-01T00:34:27.404Z,93.08
2019-06-01T00:35:27.392Z,93.38
2019-06-01T00:36:27.360Z,93.49
2019-06-01T00:37:27.347Z,93.69
2019-06-01T00:38:27.338Z,93.69
2019-06-01T00:39:27.361Z,93.29
2019-06-01T00:40:27.322Z,93.65
2019-06-01T00:41:27.362Z,93.38
2019-06-01T00:42:27.303Z,92.98
2019-06-01T00:43:27.343Z,93.24
2019-06-01T00:44:27.287Z,92.98
2019-06-01T00:45:27.249Z,93.24
2019-06-01T00:46:27.245Z,93.24
2019-06-01T00:47:27.240Z,92.98
2019-06-01T00:48:27.230Z,93.38
2019-06-01T00:49:27.228Z,92.68
2019-06-01T00:50:27.222Z,93.29
2019-06-01T00:51:27.195Z,93.18
2019-06-01T00:52:27.209Z,93.49
2019-06-01T00:53:27.164Z,93.18
2019-06-01T00:54:27.179Z,93.29
2019-06-01T00:55:27.154Z,93.38
2019-06-01T00:56:27.139Z,93.18
2019-06-01T00:57:27.130Z,93.08
2019-06-01T00:58:27.115Z,92.88
2019-06-01T00:59:27.121Z,93.38
2019-06-01T01:00:42.526Z,93.18
2019-06-01T01:01:28.081Z,93.18
2019-06-01T01:02:27.069Z,93.49
2019-06-01T01:03:27.064Z,93.18
2019-06-01T01:04:27.066Z,92.88
2019-06-01T01:05:27.031Z,92.88
2019-06-01T01:06:27.744Z,92.88
2019-06-01T01:07:27.015Z,92.88
2019-06-01T01:08:27.008Z,93.43
2019-06-01T01:09:27.020Z,93.29
2019-06-01T01:10:26.980Z,93.23
2019-06-01T01:11:26.965Z,93.33
2019-06-01T01:12:26.970Z,93.08
2019-06-01T01:13:26.949Z,93.43
2019-06-01T01:14:26.954Z,93.33
2019-06-01T01:15:26.918Z,93.29
2019-06-01T01:16:26.913Z,93.38
2019-06-01T01:17:26.897Z,93.18
2019-06-01T01:18:26.891Z,93.18
2019-06-01T01:19:26.905Z,93.59
2019-06-01T01:20:26.864Z,93.08
2019-06-01T01:21:26.854Z,93.02
2019-06-01T01:22:26.877Z,93.08
2019-06-01T01:23:26.875Z,92.98
2019-06-01T01:24:26.845Z,92.47
2019-06-01T01:25:26.824Z,92.93
2019-06-01T01:26:26.804Z,92.58
2019-06-01T01:27:26.794Z,92.98
2019-06-01T01:28:26.778Z,92.78
2019-06-01T01:29:26.790Z,92.58
2019-06-01T01:30:26.758Z,92.38
2019-06-01T01:31:26.754Z,92.78
2019-06-01T01:32:26.738Z,92.82
2019-06-01T01:33:26.731Z,92.78
2019-06-01T01:34:26.728Z,92.78
2019-06-01T01:35:26.704Z,92.72
2019-06-01T01:36:26.694Z,92.82
2019-06-01T01:37:26.732Z,92.52
2019-06-01T01:38:26.672Z,92.52
2019-06-01T01:39:26.684Z,92.98
2019-06-01T01:40:26.692Z,92.72
2019-06-01T01:41:26.632Z,92.88
2019-06-01T01:42:26.632Z,92.98
2019-06-01T01:43:26.615Z,92.88
2019-06-01T01:44:26.645Z,92.98
2019-06-01T01:45:26.597Z,92.38
2019-06-01T01:46:26.584Z,92.78
2019-06-01T01:47:26.586Z,92.78
2019-06-01T01:48:27.330Z,91.97
2019-06-01T01:49:26.582Z,92.27
2019-06-01T01:50:26.552Z,92.68
2019-06-01T01:51:26.530Z,92.58
2019-06-01T01:52:26.555Z,92.47
2019-06-01T01:53:26.511Z,92.23
2019-06-01T01:54:26.537Z,92.27
2019-06-01T01:55:26.563Z,91.67
2019-06-01T01:56:26.478Z,91.63
2019-06-01T01:57:26.475Z,91.57
2019-06-01T01:58:27.282Z,91.53
2019-06-01T01:59:26.432Z,91.53
2019-06-01T02:00:26.456Z,91.53
2019-06-01T02:01:26.423Z,91.53
2019-06-01T02:02:26.408Z,91.77
2019-06-01T02:03:26.398Z,91.37
2019-06-01T02:04:26.389Z,91.37
2019-06-01T02:05:26.385Z,91.27
2019-06-01T02:06:28.933Z,91.42
2019-06-01T02:07:26.356Z,91.27
2019-06-01T02:08:26.341Z,91.42
2019-06-01T02:09:26.323Z,91.13
2019-06-01T02:10:26.335Z,91.47
2019-06-01T02:11:26.309Z,91.02
2019-06-01T02:12:26.295Z,91.17
2019-06-01T02:13:26.289Z,91.13
2019-06-01T02:14:26.280Z,91.17
2019-06-01T02:15:26.299Z,90.92
2019-06-01T02:16:26.281Z,91.13
2019-06-01T02:17:26.267Z,91.17
2019-06-01T02:18:26.232Z,91.17
2019-06-01T02:19:26.218Z,90.92
2019-06-01T02:20:26.233Z,90.66
2019-06-01T02:21:26.203Z,90.72
2019-06-01T02:22:26.189Z,91.02
2019-06-01T02:23:26.181Z,90.82
2019-06-01T02:24:26.158Z,90.82
2019-06-01T02:25:26.166Z,90.82
2019-06-01T02:26:26.138Z,90.86
2019-06-01T02:27:26.170Z,90.97
2019-06-01T02:28:26.123Z,90.86
2019-06-01T02:29:26.117Z,90.82
2019-06-01T02:30:26.134Z,90.82
2019-06-01T02:31:40.910Z,90.82
2019-06-01T02:32:27.069Z,91.06
2019-06-01T02:33:26.066Z,90.82
2019-06-01T02:34:26.062Z,90.97
2019-06-01T02:35:26.069Z,90.97
2019-06-01T02:36:26.038Z,91.06
2019-06-01T02:37:26.028Z,91.06
2019-06-01T02:38:26.010Z,90.97
2019-06-01T02:39:25.994Z,91.47
2019-06-01T02:40:26.378Z,91.06
2019-06-01T02:41:25.976Z,91.27
2019-06-01T02:42:25.968Z,91.47
2019-06-01T02:43:26.860Z,91.27
2019-06-01T02:44:25.946Z,91.17
2019-06-01T02:45:25.957Z,90.97
2019-06-01T02:46:25.929Z,91.06
2019-06-01T02:47:25.976Z,90.97
2019-06-01T02:48:25.933Z,90.86
2019-06-01T02:49:25.905Z,90.97
2019-06-01T02:50:25.938Z,91.06
2019-06-01T02:51:25.859Z,91.06
2019-06-01T02:52:25.869Z,90.77
2019-06-01T02:53:25.832Z,90.86
2019-06-01T02:54:25.835Z,90.97
2019-06-01T02:55:25.860Z,90.77
2019-06-01T02:56:25.809Z,90.97
2019-06-01T02:57:25.800Z,90.97
2019-06-01T02:58:25.788Z,90.97
2019-06-01T02:59:25.783Z,90.46
2019-06-01T03:00:25.803Z,90.16
2019-06-01T03:01:25.750Z,90.56
2019-06-01T03:02:25.732Z,90.46
2019-06-01T03:03:25.726Z,90.46
2019-06-01T03:04:25.723Z,90.46
2019-06-01T03:05:25.723Z,90.56
2019-06-01T03:06:25.694Z,90.56
2019-06-01T03:07:25.683Z,90.16
2019-06-01T03:08:25.670Z,90.26
2019-06-01T03:09:25.661Z,90.77
2019-06-01T03:10:25.670Z,90.56
2019-06-01T03:11:25.631Z,90.77
2019-06-01T03:12:25.624Z,89.86
2019-06-01T03:13:25.628Z,89.95
2019-06-01T03:14:25.606Z,89.65
2019-06-01T03:15:25.623Z,89.55
2019-06-01T03:16:25.582Z,89.65
2019-06-01T03:17:25.580Z,89.55
2019-06-01T03:18:25.574Z,89.75
2019-06-01T03:19:25.565Z,89.45
2019-06-01T03:20:25.565Z,89.35
2019-06-01T03:21:25.518Z,89.25
2019-06-01T03:22:25.520Z,89.15
2019-06-01T03:23:25.513Z,89.15
2019-06-01T03:24:25.500Z,88.85
2019-06-01T03:25:25.506Z,89.15
2019-06-01T03:26:26.365Z,89.25
2019-06-01T03:27:25.463Z,88.95
2019-06-01T03:28:25.454Z,89.15
2019-06-01T03:29:25.482Z,89.45
2019-06-01T03:30:25.458Z,88.95
2019-06-01T03:31:25.413Z,89.05
2019-06-01T03:32:36.344Z,89.15
2019-06-01T03:33:26.401Z,88.54
2019-06-01T03:34:25.412Z,88.54
2019-06-01T03:35:25.380Z,88.75
2019-06-01T03:36:25.393Z,88.75
2019-06-01T03:37:25.350Z,88.54
2019-06-01T03:38:25.337Z,88.54
2019-06-01T03:39:25.349Z,88.54
2019-06-01T03:40:25.329Z,88.54
2019-06-01T03:41:25.321Z,89.05
2019-06-01T03:42:25.323Z,88.85
2019-06-01T03:43:25.291Z,88.75
2019-06-01T03:44:25.277Z,89.25
2019-06-01T03:45:25.262Z,89.25
2019-06-01T03:46:25.401Z,89.15
2019-06-01T03:47:25.241Z,89.15
2019-06-01T03:48:25.227Z,88.65
2019-06-01T03:49:25.217Z,89.15
2019-06-01T03:50:25.215Z,88.85
2019-06-01T03:51:25.207Z,88.34
2019-06-01T03:52:25.187Z,88.45
2019-06-01T03:53:25.166Z,88.24
2019-06-01T03:54:25.157Z,88.65
2019-06-01T03:55:25.150Z,88.54
2019-06-01T03:56:25.159Z,88.45
2019-06-01T03:57:25.129Z,88.45
2019-06-01T03:58:25.149Z,88.75
2019-06-01T03:59:25.112Z,88.45
2019-06-01T04:00:25.099Z,88.45
2019-06-01T04:01:25.113Z,88.54
2019-06-01T04:02:32.783Z,88.54
2019-06-01T04:03:26.126Z,88.24
2019-06-01T04:04:25.056Z,87.74
2019-06-01T04:05:25.040Z,87.94
2019-06-01T04:06:25.039Z,88.14
2019-06-01T04:07:25.020Z,88.14
2019-06-01T04:08:25.022Z,88.14
2019-06-01T04:09:25.017Z,88.14
2019-06-01T04:10:25.798Z,88.04
2019-06-01T04:11:25.006Z,88.04
2019-06-01T04:12:24.971Z,87.63
2019-06-01T04:13:24.944Z,87.84
2019-06-01T04:14:25.891Z,87.84
2019-06-01T04:15:24.920Z,87.74
2019-06-01T04:16:24.962Z,87.74
2019-06-01T04:17:24.900Z,88.24
2019-06-01T04:18:24.898Z,87.54
2019-06-01T04:19:24.881Z,87.54
2019-06-01T04:20:24.876Z,87.63
2019-06-01T04:21:24.892Z,87.74
2019-06-01T04:22:24.843Z,87.74
2019-06-01T04:23:24.840Z,87.74
2019-06-01T04:24:24.847Z,87.84
2019-06-01T04:25:24.812Z,87.84
2019-06-01T04:26:24.831Z,88.04
2019-06-01T04:27:24.808Z,87.90
2019-06-01T04:28:24.784Z,88.14
2019-06-01T04:29:24.774Z,87.80
2019-06-01T04:30:24.771Z,87.60
2019-06-01T04:31:24.784Z,87.90
2019-06-01T04:32:24.755Z,87.74
2019-06-01T04:33:25.391Z,87.94
2019-06-01T04:34:24.789Z,87.84
2019-06-01T04:35:24.705Z,87.34
2019-06-01T04:36:24.718Z,87.40
2019-06-01T04:37:24.688Z,87.40
2019-06-01T04:38:24.678Z,87.94
2019-06-01T04:39:24.665Z,87.40
2019-06-01T04:40:24.646Z,87.60
2019-06-01T04:41:24.663Z,87.70
2019-06-01T04:42:24.624Z,87.40
2019-06-01T04:43:24.618Z,87.29
2019-06-01T04:44:24.604Z,87.49
2019-06-01T04:45:24.597Z,87.60
2019-06-01T04:46:24.603Z,87.60
2019-06-01T04:47:24.573Z,87.49
2019-06-01T04:48:24.575Z,87.29
2019-06-01T04:49:24.549Z,87.60
2019-06-01T04:50:24.548Z,86.69
2019-06-01T04:51:24.544Z,86.99
2019-06-01T04:52:24.517Z,87.25
2019-06-01T04:53:24.507Z,86.69
2019-06-01T04:54:24.495Z,86.44
2019-06-01T04:55:24.492Z,85.98
2019-06-01T04:56:24.499Z,86.04
2019-06-01T04:57:24.473Z,86.24
2019-06-01T04:58:24.469Z,85.94
2019-06-01T04:59:24.469Z,85.74
2019-06-01T05:00:27.957Z,85.24
2019-06-01T05:01:24.433Z,85.34
2019-06-01T05:02:24.411Z,84.74
2019-06-01T05:03:24.397Z,84.53
2019-06-01T05:04:24.389Z,84.39
2019-06-01T05:05:24.378Z,84.49
2019-06-01T05:06:24.374Z,84.49
2019-06-01T05:07:24.346Z,84.49
2019-06-01T05:08:24.339Z,84.49
2019-06-01T05:09:24.321Z,83.95
2019-06-01T05:10:24.313Z,83.79
2019-06-01T05:11:24.327Z,83.79
2019-06-01T05:12:24.300Z,83.54
2019-06-01T05:13:24.308Z,83.25
2019-06-01T05:14:24.275Z,82.74
2019-06-01T05:15:24.261Z,82.94
2019-06-01T05:16:24.275Z,83.04
2019-06-01T05:17:24.239Z,83.00
2019-06-01T05:18:24.226Z,83.00
2019-06-01T05:19:24.222Z,82.70
2019-06-01T05:20:24.212Z,82.60
2019-06-01T05:21:24.214Z,82.50
2019-06-01T05:22:24.183Z,82.10
2019-06-01T05:23:24.178Z,82.20
2019-06-01T05:24:24.162Z,81.35
2019-06-01T05:25:24.158Z,81.59
2019-06-01T05:26:24.156Z,81.05
2019-06-01T05:27:24.124Z,80.55
2019-06-01T05:28:24.110Z,79.85
2019-06-01T05:29:24.117Z,80.45
2019-06-01T05:30:24.096Z,80.45
2019-06-01T05:31:25.328Z,81.15
2019-06-01T05:32:24.096Z,80.85
2019-06-01T05:33:36.439Z,81.05
2019-06-01T05:34:25.057Z,81.01
2019-06-01T05:35:24.043Z,80.95
2019-06-01T05:36:24.023Z,80.65
2019-06-01T05:37:24.028Z,80.41
2019-06-01T05:38:23.995Z,79.71
2019-06-01T05:39:24.007Z,79.71
2019-06-01T05:40:23.989Z,78.60
2019-06-01T05:41:23.990Z,78.80
2019-06-01T05:42:23.978Z,78.50
2019-06-01T05:43:23.971Z,78.80
2019-06-01T05:44:23.934Z,78.10
2019-06-01T05:45:23.955Z,78.90
2019-06-01T05:46:23.908Z,78.70
2019-06-01T05:47:23.928Z,78.30
2019-06-01T05:48:28.475Z,78.80
2019-06-01T05:49:24.888Z,78.60
2019-06-01T05:50:23.873Z,78.40
2019-06-01T05:51:23.867Z,77.90
2019-06-01T05:52:23.858Z,78.56
2019-06-01T05:53:23.841Z,78.27
2019-06-01T05:54:23.827Z,78.06
2019-06-01T05:55:23.824Z,77.96
2019-06-01T05:56:23.804Z,78.06
2019-06-01T05:57:23.812Z,77.96
2019-06-01T05:58:23.789Z,77.56
2019-06-01T05:59:23.779Z,77.96
2019-06-01T06:00:23.762Z,77.66
2019-06-01T06:01:23.747Z,77.36
2019-06-01T06:02:23.757Z,77.56
2019-06-01T06:03:39.552Z,77.42
2019-06-01T06:04:24.717Z,77.32
2019-06-01T06:05:23.720Z,77.06
2019-06-01T06:06:23.821Z,76.92
2019-06-01T06:07:23.700Z,76.92
2019-06-01T06:08:23.671Z,76.92
2019-06-01T06:09:23.665Z,76.82
2019-06-01T06:10:23.650Z,76.52
2019-06-01T06:11:23.641Z,76.42
2019-06-01T06:12:23.645Z,76.12
2019-06-01T06:13:23.619Z,75.92
2019-06-01T06:14:23.623Z,75.71
2019-06-01T06:15:23.596Z,75.71
2019-06-01T06:16:23.588Z,75.82
2019-06-01T06:17:24.434Z,75.92
2019-06-01T06:18:23.560Z,75.92
2019-06-01T06:19:23.842Z,75.82
2019-06-01T06:20:23.529Z,75.71
2019-06-01T06:21:23.530Z,75.62
2019-06-01T06:22:23.547Z,75.71
2019-06-01T06:23:23.513Z,75.58
2019-06-01T06:24:23.496Z,75.31
2019-06-01T06:25:27.454Z,75.62
2019-06-01T06:26:24.476Z,75.71
2019-06-01T06:27:23.485Z,75.38
2019-06-01T06:28:26.522Z,75.51
2019-06-01T06:29:23.443Z,75.11
2019-06-01T06:30:23.439Z,75.21
2019-06-01T06:31:23.429Z,75.21
2019-06-01T06:32:23.503Z,75.62
2019-06-01T06:33:23.744Z,75.21
2019-06-01T06:34:23.633Z,74.81
2019-06-01T06:35:23.699Z,74.71
2019-06-01T06:36:23.831Z,74.61
2019-06-01T06:37:23.901Z,74.61
2019-06-01T06:38:24.075Z,74.71
2019-06-01T06:39:24.220Z,74.21
2019-06-01T06:40:24.269Z,73.81
2019-06-01T06:41:24.354Z,73.71
2019-06-01T06:42:24.350Z,74.41
2019-06-01T06:43:31.078Z,73.91
2019-06-01T06:44:24.808Z,74.21
2019-06-01T06:45:23.279Z,73.50
2019-06-01T06:46:23.251Z,73.81
2019-06-01T06:47:23.275Z,73.81
2019-06-01T06:48:23.359Z,73.30
2019-06-01T06:49:23.312Z,73.07
2019-06-01T06:50:23.558Z,73.87
2019-06-01T06:51:23.376Z,73.77
2019-06-01T06:52:23.611Z,74.07
2019-06-01T06:53:32.395Z,73.57
2019-06-01T06:54:24.165Z,72.67
2019-06-01T06:55:24.046Z,72.37
2019-06-01T06:56:24.033Z,72.67
2019-06-01T06:57:24.137Z,73.27
2019-06-01T06:58:24.324Z,73.07
2019-06-01T06:59:23.106Z,73.67
2019-06-01T07:00:23.104Z,73.37
2019-06-01T07:01:23.084Z,72.87
2019-06-01T07:02:23.105Z,72.56
2019-06-01T07:03:23.201Z,72.17
2019-06-01T07:04:23.305Z,72.37
2019-06-01T07:05:23.502Z,71.97
2019-06-01T07:06:23.657Z,72.56
2019-06-01T07:07:23.736Z,72.77
2019-06-01T07:08:23.911Z,73.17
2019-06-01T07:09:23.982Z,72.97
2019-06-01T07:10:24.168Z,72.56
2019-06-01T07:11:23.436Z,72.87
2019-06-01T07:12:23.309Z,73.07
2019-06-01T07:13:23.864Z,73.07
2019-06-01T07:14:23.475Z,72.17
2019-06-01T07:15:23.495Z,72.87
2019-06-01T07:16:23.514Z,71.86
2019-06-01T07:17:23.525Z,72.17
2019-06-01T07:18:23.645Z,72.17
2019-06-01T07:19:23.732Z,71.97
2019-06-01T07:20:23.710Z,71.86
2019-06-01T07:21:23.746Z,72.37
2019-06-01T07:22:23.824Z,72.17
2019-06-01T07:23:23.858Z,71.97
2019-06-01T07:24:23.803Z,72.17
2019-06-01T07:25:22.819Z,71.97
2019-06-01T07:26:23.982Z,72.67
2019-06-01T07:27:24.036Z,72.56
2019-06-01T07:28:24.030Z,71.97
2019-06-01T07:29:23.039Z,71.30
2019-06-01T07:30:22.771Z,70.46
2019-06-01T07:31:22.767Z,70.16
2019-06-01T07:32:22.785Z,71.16
2019-06-01T07:33:22.723Z,71.47
2019-06-01T07:34:33.645Z,71.26
2019-06-01T07:35:24.443Z,71.56
2019-06-01T07:36:22.706Z,71.36
2019-06-01T07:37:22.703Z,71.36
2019-06-01T07:38:22.674Z,71.36
2019-06-01T07:39:22.764Z,71.63
2019-06-01T07:40:22.954Z,71.56
2019-06-01T07:41:22.661Z,72.27
2019-06-01T07:42:24.457Z,71.73
2019-06-01T07:43:24.655Z,71.23
2019-06-01T07:44:22.871Z,70.32
2019-06-01T07:45:22.923Z,70.53
2019-06-01T07:46:22.839Z,70.03
2019-06-01T07:47:22.841Z,69.73
2019-06-01T07:48:23.114Z,69.69
2019-06-01T07:49:23.205Z,68.89
2019-06-01T07:50:22.539Z,68.39
2019-06-01T07:51:23.240Z,69.09
2019-06-01T07:52:22.541Z,68.99
2019-06-01T07:53:24.036Z,68.89
2019-06-01T07:54:22.525Z,68.29
2019-06-01T07:55:23.481Z,68.29
2019-06-01T07:56:22.652Z,67.85
2019-06-01T07:57:23.579Z,67.76
2019-06-01T07:58:22.465Z,68.05
2019-06-01T07:59:22.983Z,67.45
2019-06-01T08:00:23.992Z,67.35
2019-06-01T08:01:24.583Z,67.15
2019-06-01T08:02:25.387Z,67.45
2019-06-01T08:03:23.232Z,67.35
2019-06-01T08:04:23.955Z,66.52
2019-06-01T08:05:23.381Z,66.72
2019-06-01T08:06:23.787Z,66.05
2019-06-01T08:07:23.285Z,66.35
2019-06-01T08:08:23.362Z,66.62
2019-06-01T08:09:24.525Z,67.02
2019-06-01T08:10:23.112Z,66.92
2019-06-01T08:11:25.263Z,67.12
2019-06-01T08:12:23.338Z,66.22
2019-06-01T08:13:23.405Z,65.82
2019-06-01T08:14:22.583Z,65.82
2019-06-01T08:15:23.442Z,66.22
2019-06-01T08:16:23.567Z,66.09
2019-06-01T08:17:22.248Z,66.32
2019-06-01T08:18:22.258Z,65.09
2019-06-01T08:19:22.217Z,66.02
2019-06-01T08:20:22.347Z,65.48
2019-06-01T08:21:22.249Z,65.59
2019-06-01T08:22:22.224Z,65.28
2019-06-01T08:23:22.256Z,65.48
2019-06-01T08:24:22.223Z,65.89
2019-06-01T08:25:22.245Z,65.89
2019-06-01T08:26:22.297Z,65.89
2019-06-01T08:27:22.474Z,65.59
2019-06-01T08:28:22.401Z,65.19
2019-06-01T08:29:22.629Z,65.39
2019-06-01T08:30:22.589Z,65.89
2019-06-01T08:31:24.437Z,65.48
2019-06-01T08:32:22.666Z,64.48
2019-06-01T08:33:26.526Z,63.78
2019-06-01T08:34:23.057Z,64.09
2019-06-01T08:35:22.827Z,63.98
2019-06-01T08:36:23.124Z,63.39
2019-06-01T08:37:23.479Z,62.88
2019-06-01T08:38:23.245Z,62.85
2019-06-01T08:39:23.370Z,63.15
2019-06-01T08:40:23.202Z,63.15
2019-06-01T08:41:23.250Z,63.95
2019-06-01T08:42:23.325Z,64.55
2019-06-01T08:43:23.408Z,64.15
2019-06-01T08:44:21.947Z,63.95
2019-06-01T08:45:21.932Z,63.95
2019-06-01T08:46:21.935Z,64.65
2019-06-01T08:47:21.927Z,65.25
2019-06-01T08:48:21.935Z,64.15
2019-06-01T08:49:21.889Z,63.45
2019-06-01T08:50:21.911Z,63.95
2019-06-01T08:51:23.827Z,64.65
2019-06-01T08:52:21.920Z,64.45
2019-06-01T08:53:22.400Z,63.95
2019-06-01T08:54:21.833Z,63.56
2019-06-01T08:55:21.819Z,63.15
2019-06-01T08:56:22.201Z,63.56
2019-06-01T08:57:21.812Z,64.15
2019-06-01T08:58:21.810Z,64.36
2019-06-01T08:59:21.780Z,64.45
2019-06-01T09:00:21.763Z,64.06
2019-06-01T09:01:21.757Z,64.55
2019-06-01T09:02:21.749Z,64.36
2019-06-01T09:03:21.765Z,64.65
2019-06-01T09:04:21.723Z,64.45
2019-06-01T09:05:24.922Z,63.25
2019-06-01T09:06:21.767Z,63.35
2019-06-01T09:07:21.702Z,63.06
2019-06-01T09:08:23.957Z,63.75
2019-06-01T09:09:21.693Z,63.45
2019-06-01T09:10:21.658Z,64.25
2019-06-01T09:11:21.644Z,64.55
2019-06-01T09:12:21.643Z,64.15
2019-06-01T09:13:21.662Z,64.95
2019-06-01T09:14:21.605Z,63.82
2019-06-01T09:15:21.607Z,63.06
2019-06-01T09:16:21.607Z,62.92
2019-06-01T09:17:21.596Z,63.53
2019-06-01T09:18:21.597Z,63.53
2019-06-01T09:19:21.554Z,63.32
2019-06-01T09:20:21.549Z,62.82
2019-06-01T09:21:21.549Z,63.62
2019-06-01T09:22:21.524Z,62.89
2019-06-01T09:23:21.536Z,62.39
2019-06-01T09:24:21.512Z,62.70
2019-06-01T09:25:21.561Z,62.89
2019-06-01T09:26:21.490Z,62.49
2019-06-01T09:27:21.467Z,62.59
2019-06-01T09:28:21.478Z,62.99
2019-06-01T09:29:21.443Z,62.99
2019-06-01T09:30:21.490Z,62.59
2019-06-01T09:31:21.427Z,62.59
2019-06-01T09:32:21.423Z,62.99
2019-06-01T09:33:21.414Z,62.70
2019-06-01T09:34:21.399Z,61.57
2019-06-01T09:35:21.406Z,61.07
2019-06-01T09:36:21.377Z,61.36
2019-06-01T09:37:21.358Z,62.86
2019-06-01T09:38:21.375Z,61.36
2019-06-01T09:39:21.341Z,60.86
2019-06-01T09:40:21.330Z,60.16
2019-06-01T09:41:21.331Z,60.36
2019-06-01T09:42:21.315Z,60.03
2019-06-01T09:43:21.318Z,60.27
2019-06-01T09:44:21.292Z,59.97
2019-06-01T09:45:21.312Z,60.46
2019-06-01T09:46:21.271Z,59.97
2019-06-01T09:47:21.259Z,59.97
2019-06-01T09:48:21.274Z,60.06
2019-06-01T09:49:21.299Z,60.46
2019-06-01T09:50:21.241Z,59.97
2019-06-01T09:51:21.213Z,59.66
2019-06-01T09:52:21.228Z,60.27
2019-06-01T09:53:21.242Z,60.06
2019-06-01T09:54:21.215Z,60.06
2019-06-01T09:55:21.163Z,59.97
2019-06-01T09:56:21.156Z,60.46
2019-06-01T09:57:21.165Z,60.96
2019-06-01T09:58:21.135Z,60.57
2019-06-01T09:59:21.159Z,61.36
2019-06-01T10:00:21.111Z,61.07
2019-06-01T10:01:21.119Z,61.36
2019-06-01T10:02:21.084Z,61.46
2019-06-01T10:03:21.070Z,60.83
2019-06-01T10:04:21.087Z,59.06
2019-06-01T10:05:21.059Z,60.27
2019-06-01T10:06:21.042Z,60.24
2019-06-01T10:07:21.037Z,60.16
2019-06-01T10:08:21.020Z,60.86
2019-06-01T10:09:21.962Z,61.26
2019-06-01T10:10:21.011Z,61.16
2019-06-01T10:11:20.996Z,61.04
2019-06-01T10:12:21.023Z,60.93
2019-06-01T10:13:20.963Z,60.44
2019-06-01T10:14:20.978Z,60.24
2019-06-01T10:15:20.944Z,60.74
2019-06-01T10:16:20.932Z,60.03
2019-06-01T10:17:20.918Z,60.53
2019-06-01T10:18:20.896Z,59.83
2019-06-01T10:19:20.913Z,59.44
2019-06-01T10:20:20.887Z,59.64
2019-06-01T10:21:20.903Z,59.31
2019-06-01T10:22:20.863Z,59.31
2019-06-01T10:23:20.852Z,59.21
2019-06-01T10:24:20.869Z,60.11
2019-06-01T10:25:20.851Z,59.51
2019-06-01T10:26:20.823Z,59.11
2019-06-01T10:27:20.807Z,59.11
2019-06-01T10:28:20.805Z,58.31
2019-06-01T10:29:20.811Z,59.31
2019-06-01T10:30:20.800Z,58.71
2019-06-01T10:31:20.823Z,59.61
2019-06-01T10:32:20.750Z,58.41
2019-06-01T10:33:20.751Z,59.11
2019-06-01T10:34:20.751Z,58.73
2019-06-01T10:35:20.723Z,58.81
2019-06-01T10:36:21.614Z,59.31
2019-06-01T10:37:20.702Z,58.71
2019-06-01T10:38:20.693Z,60.00
2019-06-01T10:39:20.692Z,60.31
2019-06-01T10:40:20.676Z,60.61
2019-06-01T10:41:21.445Z,60.61
2019-06-01T10:42:20.639Z,59.81
2019-06-01T10:43:20.638Z,60.71
2019-06-01T10:44:20.664Z,60.21
2019-06-01T10:45:20.610Z,60.91
2019-06-01T10:46:20.602Z,58.91
2019-06-01T10:47:20.584Z,58.61
2019-06-01T10:48:20.572Z,58.31
2019-06-01T10:49:20.584Z,58.51
2019-06-01T10:50:20.553Z,58.71
2019-06-01T10:51:20.551Z,58.41
2019-06-01T10:52:20.533Z,58.21
2019-06-01T10:53:20.526Z,58.51
2019-06-01T10:54:20.524Z,58.01
2019-06-01T10:55:20.502Z,58.21
2019-06-01T10:56:20.499Z,58.91
2019-06-01T10:57:20.481Z,57.98
2019-06-01T10:58:20.474Z,57.78
2019-06-01T10:59:20.506Z,58.38
2019-06-01T11:00:37.065Z,58.78
2019-06-01T11:01:21.437Z,58.38
2019-06-01T11:02:20.422Z,57.78
2019-06-01T11:03:20.414Z,57.78
2019-06-01T11:04:20.416Z,57.68
2019-06-01T11:05:20.397Z,57.81
2019-06-01T11:06:36.289Z,56.09
2019-06-01T11:07:21.368Z,56.59
2019-06-01T11:08:20.359Z,56.09
2019-06-01T11:09:20.370Z,55.69
2019-06-01T11:10:20.332Z,55.39
2019-06-01T11:11:20.316Z,55.49
2019-06-01T11:12:20.316Z,55.46
2019-06-01T11:13:20.313Z,55.56
2019-06-01T11:14:20.302Z,55.46
2019-06-01T11:15:20.300Z,55.36
2019-06-01T11:16:20.271Z,55.46
2019-06-01T11:17:20.284Z,55.46
2019-06-01T11:18:20.247Z,55.26
2019-06-01T11:19:20.256Z,55.36
2019-06-01T11:20:20.226Z,55.96
2019-06-01T11:21:20.220Z,55.73
2019-06-01T11:22:20.204Z,55.46
2019-06-01T11:23:20.197Z,55.63
2019-06-01T11:24:20.202Z,55.13
2019-06-01T11:25:20.175Z,55.54
2019-06-01T11:26:20.185Z,55.33
2019-06-01T11:27:20.149Z,55.61
2019-06-01T11:28:20.147Z,55.41
2019-06-01T11:29:20.143Z,55.21
2019-06-01T11:30:20.127Z,54.91
2019-06-01T11:31:20.102Z,54.41
2019-06-01T11:32:20.097Z,54.41
2019-06-01T11:33:20.087Z,54.41
2019-06-01T11:34:20.083Z,54.41
2019-06-01T11:35:20.053Z,54.31
2019-06-01T11:36:20.057Z,55.01
2019-06-01T11:37:20.042Z,55.54
2019-06-01T11:38:20.033Z,55.54
2019-06-01T11:39:20.031Z,55.51
2019-06-01T11:40:20.011Z,55.71
2019-06-01T11:41:20.027Z,55.51
2019-06-01T11:42:20.250Z,55.31
2019-06-01T11:43:19.969Z,54.61
2019-06-01T11:44:19.968Z,54.31
2019-06-01T11:45:19.961Z,53.61
2019-06-01T11:46:19.954Z,52.69
2019-06-01T11:47:19.936Z,53.02
2019-06-01T11:48:19.918Z,53.29
2019-06-01T11:49:21.223Z,52.92
2019-06-01T11:50:19.894Z,53.09
2019-06-01T11:51:19.886Z,52.89
2019-06-01T11:52:19.870Z,53.29
2019-06-01T11:53:19.857Z,52.89
2019-06-01T11:54:19.868Z,54.08
2019-06-01T11:55:19.831Z,54.49
2019-06-01T11:56:19.828Z,52.89
2019-06-01T11:57:19.825Z,53.19
2019-06-01T11:58:19.797Z,53.09
2019-06-01T11:59:21.334Z,53.69
2019-06-01T12:00:19.785Z,53.39
2019-06-01T12:01:19.791Z,53.19
2019-06-01T12:02:19.762Z,53.09
2019-06-01T12:03:19.742Z,51.40
2019-06-01T12:04:19.736Z,52.29
2019-06-01T12:05:19.754Z,52.00
2019-06-01T12:06:19.715Z,53.09
2019-06-01T12:07:19.706Z,53.09
2019-06-01T12:08:19.701Z,53.49
2019-06-01T12:09:19.682Z,52.89
2019-06-01T12:10:19.694Z,52.99
2019-06-01T12:11:19.673Z,52.89
2019-06-01T12:12:19.656Z,52.59
2019-06-01T12:13:19.642Z,52.69
2019-06-01T12:14:19.632Z,53.49
2019-06-01T12:15:19.630Z,52.89
2019-06-01T12:16:19.614Z,52.49
2019-06-01T12:17:19.607Z,52.59
2019-06-01T12:18:19.589Z,52.99
2019-06-01T12:19:19.580Z,52.59
2019-06-01T12:20:19.596Z,51.40
2019-06-01T12:21:19.577Z,51.20
2019-06-01T12:22:19.547Z,52.07
2019-06-01T12:23:19.573Z,51.67
2019-06-01T12:24:25.369Z,51.77
2019-06-01T12:25:20.528Z,51.47
2019-06-01T12:26:19.508Z,51.67
2019-06-01T12:27:19.499Z,52.27
2019-06-01T12:28:19.477Z,52.27
2019-06-01T12:29:19.523Z,52.57
2019-06-01T12:30:20.032Z,50.48
2019-06-01T12:31:19.445Z,50.48
2019-06-01T12:32:19.439Z,50.48
2019-06-01T12:33:19.422Z,50.57
2019-06-01T12:34:19.412Z,50.08
2019-06-01T12:35:19.428Z,48.76
2019-06-01T12:36:19.413Z,49.18
2019-06-01T12:37:36.177Z,48.96
2019-06-01T12:38:20.371Z,48.66
2019-06-01T12:39:19.365Z,48.56
2019-06-01T12:40:19.374Z,48.76
2019-06-01T12:41:19.329Z,48.56
2019-06-01T12:42:19.322Z,48.54
2019-06-01T12:43:19.313Z,49.53
2019-06-01T12:44:19.310Z,49.73
2019-06-01T12:45:22.702Z,50.13
2019-06-01T12:46:19.279Z,50.63
2019-06-01T12:47:19.279Z,49.63
2019-06-01T12:48:19.257Z,48.91
2019-06-01T12:49:19.246Z,48.32
2019-06-01T12:50:19.298Z,47.22
2019-06-01T12:51:19.235Z,47.64
2019-06-01T12:52:19.227Z,47.82